Milk And Honey — WDF9265 — position and weather

sailwx.info

Track history (hours):
 
Tides and Currents Weather Stations Pressure Air Temp Water Temp Dewpoint Dewpoint Depression Visibility Wind Speed Wind Dir Waves Ship Positions

Milk And Honey

Owner: EKS Chartering Inc, Parsippany, NJ. More information available from US FCC via Universal Licensing System and Coast Guard Vessel Documentation Center.

Last reported at 2017-May-27 17:43 UTC. Time now 2017-May-29 02:10 UTC.
Position N 18°18' W 064°53'.

Length 40 m.

Type: Pleasure craft. MMSI: 367503380.

Date/timePositionNaut miles runAvg speedWind from/ knotsBaromVisibWave heightAir tempDewpointWater temp
2017-May-27 17:43N 18°18' W 064°53'310.7
2017-May-27 17:28N 18°19' W 064°50'2 4.1
2017-May-27 17:01N 18°20' W 064°48'0 0.1
2017-May-27 16:31N 18°20' W 064°48'4 8.2
2017-May-27 16:01N 18°23' W 064°45'510.2
2017-May-27 15:30N 18°23' W 064°39'3 1.0
2017-May-27 12:10N 18°25' W 064°36'211.2
2017-May-27 11:58N 18°23' W 064°37'3 1.6
2017-May-27 09:51N 18°19' W 064°37'0 0.1
2017-May-27 09:30N 18°19' W 064°37'0 0.0
2017-May-27 09:00N 18°19' W 064°37'0 0.0
2017-May-27 08:23N 18°19' W 064°37'0 0.1
2017-May-27 07:58N 18°19' W 064°37'0 0.0
2017-May-27 07:30N 18°19' W 064°37'0 0.0
2017-May-27 06:58N 18°19' W 064°37'0 0.0
2017-May-27 06:27N 18°19' W 064°37'0 0.0
2017-May-27 06:01N 18°19' W 064°37'0 0.0
2017-May-27 05:27N 18°19' W 064°37'0 0.0
2017-May-27 04:58N 18°19' W 064°37'0 0.0
2017-May-27 04:28N 18°19' W 064°37'0 0.0
2017-May-27 03:58N 18°19' W 064°37'0 0.0
2017-May-27 03:28N 18°19' W 064°37'0 0.0
2017-May-27 02:58N 18°19' W 064°37'0 0.0
2017-May-27 02:25N 18°19' W 064°37'0 0.0
2017-May-27 01:56N 18°19' W 064°37'0 0.0
2017-May-27 01:27N 18°19' W 064°37'0 0.0
2017-May-27 00:58N 18°19' W 064°37'0 0.0
2017-May-26 23:44N 18°19' W 064°37'0 0.1
2017-May-26 23:30N 18°19' W 064°37'0 0.0
2017-May-26 09:55N 18°19' W 064°37'0 0.0
2017-May-26 09:23N 18°19' W 064°37'0 0.0
2017-May-26 08:56N 18°19' W 064°37'0 0.0
2017-May-26 08:30N 18°19' W 064°37'0 0.0
2017-May-26 07:56N 18°19' W 064°37'0 0.0
2017-May-26 07:27N 18°19' W 064°37'0 0.0
2017-May-26 06:58N 18°19' W 064°37'0 0.0
2017-May-26 06:17N 18°19' W 064°37'0 0.0
2017-May-26 05:57N 18°19' W 064°37'0 0.0
2017-May-26 05:09N 18°19' W 064°37'0 0.0
2017-May-26 04:59N 18°19' W 064°37'0 0.0
2017-May-26 04:30N 18°19' W 064°37'0 0.0
2017-May-26 03:57N 18°19' W 064°37'0 0.0
2017-May-26 03:30N 18°19' W 064°37'0 0.0
2017-May-26 02:55N 18°19' W 064°37'0 0.0
2017-May-26 02:26N 18°19' W 064°37'0 0.0
2017-May-26 01:55N 18°19' W 064°37'2 0.3
2017-May-25 17:42N 18°21' W 064°37'211.2
2017-May-25 17:30N 18°22' W 064°35'811.3
2017-May-25 16:50N 18°27' W 064°28'3 0.6
2017-May-25 12:03N 18°29' W 064°26'5 0.6
2017-May-25 03:03N 18°27' W 064°32'0 3.0
2017-May-25 02:54N 18°27' W 064°31'410.9
2017-May-25 02:30N 18°26' W 064°27'0 0.3
2017-May-25 02:00N 18°26' W 064°27'0 0.0
2017-May-25 01:30N 18°26' W 064°27'0 0.0
2017-May-25 01:00N 18°26' W 064°27'0 0.0
2017-May-25 00:30N 18°26' W 064°27'0 0.0
2017-May-25 00:00N 18°26' W 064°27'0 0.0
2017-May-24 23:30N 18°26' W 064°27'0 0.0
2017-May-24 23:00N 18°26' W 064°27'0 0.0
2017-May-24 22:30N 18°26' W 064°27'0 0.0
2017-May-24 22:00N 18°26' W 064°27'0 0.0
2017-May-24 21:30N 18°26' W 064°27'0 0.0
2017-May-24 21:00N 18°26' W 064°27'0 0.0
2017-May-24 20:23N 18°26' W 064°27'0 0.1
2017-May-24 20:00N 18°26' W 064°27'0 0.0
2017-May-24 19:24N 18°26' W 064°27'0 0.0
2017-May-24 17:28N 18°26' W 064°27'510.5
2017-May-24 17:00N 18°24' W 064°31'611.0
2017-May-24 16:30N 18°22' W 064°36'3 0.4
2017-May-24 10:18N 18°19' W 064°37'0 0.0
2017-May-24 09:54N 18°19' W 064°37'0 0.0
2017-May-24 09:20N 18°19' W 064°37'0 0.1
2017-May-24 08:59N 18°19' W 064°37'0 0.0
2017-May-24 08:30N 18°19' W 064°37'0 0.0
2017-May-24 07:23N 18°19' W 064°37'0 0.0
2017-May-24 07:00N 18°19' W 064°37'0 0.0
2017-May-24 06:30N 18°19' W 064°37'0 0.0
2017-May-24 05:54N 18°19' W 064°37'0 0.0
2017-May-24 05:26N 18°19' W 064°37'0 0.1
2017-May-24 04:55N 18°19' W 064°37'2 0.3
2017-May-23 21:50N 18°21' W 064°37'411.0
2017-May-23 21:30N 18°23' W 064°33'1 2.1
2017-May-23 21:00N 18°22' W 064°32'0 0.0
2017-May-23 20:29N 18°22' W 064°32'0 0.0
2017-May-23 20:00N 18°22' W 064°32'0 0.0
2017-May-23 19:28N 18°22' W 064°32'0 0.0
2017-May-23 19:00N 18°22' W 064°32'2 3.2
2017-May-23 18:30N 18°24' W 064°31'610.3
2017-May-23 17:54N 18°28' W 064°27'5 0.1
2017-May-21 22:03N 18°26' W 064°31'010.2
2017-May-21 22:00N 18°25' W 064°31'510.7
2017-May-21 21:30N 18°24' W 064°37'510.9
2017-May-21 21:00N 18°23' W 064°42'0 0.9
2017-May-21 20:30N 18°23' W 064°43'4 8.7
2017-May-21 20:00N 18°22' W 064°47'510.2
2017-May-21 19:28N 18°18' W 064°52'1 0.2
2017-May-21 14:37N 18°18' W 064°52'310.5
2017-May-21 14:23N 18°19' W 064°50'2 2.2
2017-May-21 13:30N 18°20' W 064°48'0 0.0
2017-May-21 13:00N 18°20' W 064°48'1 1.5
2017-May-21 12:30N 18°21' W 064°48'611.0
2017-May-21 12:00N 18°24' W 064°44'511.0
2017-May-21 11:30N 18°27' W 064°39'8 0.4
2017-May-20 17:32N 18°25' W 064°31'011.3
2017-May-20 17:30N 18°25' W 064°31'3 5.4
2017-May-20 17:00N 18°23' W 064°32'0 0.0
2017-May-20 16:25N 18°22' W 064°32'0 0.0
2017-May-20 15:56N 18°22' W 064°32'0 0.0
2017-May-20 15:24N 18°22' W 064°32'0 0.0
2017-May-20 14:58N 18°22' W 064°32'0 0.1
2017-May-20 14:30N 18°23' W 064°32'0 0.0
2017-May-20 13:28N 18°23' W 064°32'0 0.6
2017-May-20 13:00N 18°22' W 064°32'6 1.7
2017-May-20 09:31N 18°19' W 064°37'0 0.0
2017-May-20 07:54N 18°19' W 064°37'0 0.0
2017-May-20 07:08N 18°19' W 064°37'0 0.0
2017-May-20 06:57N 18°19' W 064°37'2 0.2
2017-May-19 17:05N 18°21' W 064°37'111.1
2017-May-19 17:00N 18°22' W 064°36'1 2.3
2017-May-19 16:23N 18°22' W 064°34'2 4.2
2017-May-19 16:00N 18°21' W 064°36'1 0.0
2017-May-18 22:17N 18°21' W 064°35'2 6.8
2017-May-18 22:00N 18°21' W 064°37'511.0
2017-May-18 21:30N 18°25' W 064°32'611.0
2017-May-18 21:00N 18°28' W 064°27'  
Track history (hours):
 
Tides and Currents Weather Stations Pressure Air Temp Water Temp Dewpoint Dewpoint Depression Visibility Wind Speed Wind Dir Waves Ship Positions

Milk And Honey

Owner: EKS Chartering Inc, Parsippany, NJ. More information available from US FCC via Universal Licensing System and Coast Guard Vessel Documentation Center.

Last reported at 2017-May-27 17:43 UTC. Time now 2017-May-29 02:10 UTC.
Position N 18°18' W 064°53'.

Length 40 m.

Type: Pleasure craft. MMSI: 367503380.

Date/timePositionNaut miles runAvg speedWind from/ knotsBaromVisibWave heightAir tempDewpointWater temp
2017-May-27 17:43N 18°18' W 064°53'310.7
2017-May-27 17:28N 18°19' W 064°50'2 4.1
2017-May-27 17:01N 18°20' W 064°48'0 0.1
2017-May-27 16:31N 18°20' W 064°48'4 8.2
2017-May-27 16:01N 18°23' W 064°45'510.2
2017-May-27 15:30N 18°23' W 064°39'3 1.0
2017-May-27 12:10N 18°25' W 064°36'211.2
2017-May-27 11:58N 18°23' W 064°37'3 1.6
2017-May-27 09:51N 18°19' W 064°37'0 0.1
2017-May-27 09:30N 18°19' W 064°37'0 0.0
2017-May-27 09:00N 18°19' W 064°37'0 0.0
2017-May-27 08:23N 18°19' W 064°37'0 0.1
2017-May-27 07:58N 18°19' W 064°37'0 0.0
2017-May-27 07:30N 18°19' W 064°37'0 0.0
2017-May-27 06:58N 18°19' W 064°37'0 0.0
2017-May-27 06:27N 18°19' W 064°37'0 0.0
2017-May-27 06:01N 18°19' W 064°37'0 0.0
2017-May-27 05:27N 18°19' W 064°37'0 0.0
2017-May-27 04:58N 18°19' W 064°37'0 0.0
2017-May-27 04:28N 18°19' W 064°37'0 0.0
2017-May-27 03:58N 18°19' W 064°37'0 0.0
2017-May-27 03:28N 18°19' W 064°37'0 0.0
2017-May-27 02:58N 18°19' W 064°37'0 0.0
2017-May-27 02:25N 18°19' W 064°37'0 0.0
2017-May-27 01:56N 18°19' W 064°37'0 0.0
2017-May-27 01:27N 18°19' W 064°37'0 0.0
2017-May-27 00:58N 18°19' W 064°37'0 0.0
2017-May-26 23:44N 18°19' W 064°37'0 0.1
2017-May-26 23:30N 18°19' W 064°37'0 0.0
2017-May-26 09:55N 18°19' W 064°37'0 0.0
2017-May-26 09:23N 18°19' W 064°37'0 0.0
2017-May-26 08:56N 18°19' W 064°37'0 0.0
2017-May-26 08:30N 18°19' W 064°37'0 0.0
2017-May-26 07:56N 18°19' W 064°37'0 0.0
2017-May-26 07:27N 18°19' W 064°37'0 0.0
2017-May-26 06:58N 18°19' W 064°37'0 0.0
2017-May-26 06:17N 18°19' W 064°37'0 0.0
2017-May-26 05:57N 18°19' W 064°37'0 0.0
2017-May-26 05:09N 18°19' W 064°37'0 0.0
2017-May-26 04:59N 18°19' W 064°37'0 0.0
2017-May-26 04:30N 18°19' W 064°37'0 0.0
2017-May-26 03:57N 18°19' W 064°37'0 0.0
2017-May-26 03:30N 18°19' W 064°37'0 0.0
2017-May-26 02:55N 18°19' W 064°37'0 0.0
2017-May-26 02:26N 18°19' W 064°37'0 0.0
2017-May-26 01:55N 18°19' W 064°37'2 0.3
2017-May-25 17:42N 18°21' W 064°37'211.2
2017-May-25 17:30N 18°22' W 064°35'811.3
2017-May-25 16:50N 18°27' W 064°28'3 0.6
2017-May-25 12:03N 18°29' W 064°26'5 0.6
2017-May-25 03:03N 18°27' W 064°32'0 3.0
2017-May-25 02:54N 18°27' W 064°31'410.9
2017-May-25 02:30N 18°26' W 064°27'0 0.3
2017-May-25 02:00N 18°26' W 064°27'0 0.0
2017-May-25 01:30N 18°26' W 064°27'0 0.0
2017-May-25 01:00N 18°26' W 064°27'0 0.0
2017-May-25 00:30N 18°26' W 064°27'0 0.0
2017-May-25 00:00N 18°26' W 064°27'0 0.0
2017-May-24 23:30N 18°26' W 064°27'0 0.0
2017-May-24 23:00N 18°26' W 064°27'0 0.0
2017-May-24 22:30N 18°26' W 064°27'0 0.0
2017-May-24 22:00N 18°26' W 064°27'0 0.0
2017-May-24 21:30N 18°26' W 064°27'0 0.0
2017-May-24 21:00N 18°26' W 064°27'0 0.0
2017-May-24 20:23N 18°26' W 064°27'0 0.1
2017-May-24 20:00N 18°26' W 064°27'0 0.0
2017-May-24 19:24N 18°26' W 064°27'0 0.0
2017-May-24 17:28N 18°26' W 064°27'510.5
2017-May-24 17:00N 18°24' W 064°31'611.0
2017-May-24 16:30N 18°22' W 064°36'3 0.4
2017-May-24 10:18N 18°19' W 064°37'0 0.0
2017-May-24 09:54N 18°19' W 064°37'0 0.0
2017-May-24 09:20N 18°19' W 064°37'0 0.1
2017-May-24 08:59N 18°19' W 064°37'0 0.0
2017-May-24 08:30N 18°19' W 064°37'0 0.0
2017-May-24 07:23N 18°19' W 064°37'0 0.0
2017-May-24 07:00N 18°19' W 064°37'0 0.0
2017-May-24 06:30N 18°19' W 064°37'0 0.0
2017-May-24 05:54N 18°19' W 064°37'0 0.0
2017-May-24 05:26N 18°19' W 064°37'0 0.1
2017-May-24 04:55N 18°19' W 064°37'2 0.3
2017-May-23 21:50N 18°21' W 064°37'411.0
2017-May-23 21:30N 18°23' W 064°33'1 2.1
2017-May-23 21:00N 18°22' W 064°32'0 0.0
2017-May-23 20:29N 18°22' W 064°32'0 0.0
2017-May-23 20:00N 18°22' W 064°32'0 0.0
2017-May-23 19:28N 18°22' W 064°32'0 0.0
2017-May-23 19:00N 18°22' W 064°32'2 3.2
2017-May-23 18:30N 18°24' W 064°31'610.3
2017-May-23 17:54N 18°28' W 064°27'5 0.1
2017-May-21 22:03N 18°26' W 064°31'010.2
2017-May-21 22:00N 18°25' W 064°31'510.7
2017-May-21 21:30N 18°24' W 064°37'510.9
2017-May-21 21:00N 18°23' W 064°42'0 0.9
2017-May-21 20:30N 18°23' W 064°43'4 8.7
2017-May-21 20:00N 18°22' W 064°47'510.2
2017-May-21 19:28N 18°18' W 064°52'1 0.2
2017-May-21 14:37N 18°18' W 064°52'310.5
2017-May-21 14:23N 18°19' W 064°50'2 2.2
2017-May-21 13:30N 18°20' W 064°48'0 0.0
2017-May-21 13:00N 18°20' W 064°48'1 1.5
2017-May-21 12:30N 18°21' W 064°48'611.0
2017-May-21 12:00N 18°24' W 064°44'511.0
2017-May-21 11:30N 18°27' W 064°39'8 0.4
2017-May-20 17:32N 18°25' W 064°31'011.3
2017-May-20 17:30N 18°25' W 064°31'3 5.4
2017-May-20 17:00N 18°23' W 064°32'0 0.0
2017-May-20 16:25N 18°22' W 064°32'0 0.0
2017-May-20 15:56N 18°22' W 064°32'0 0.0
2017-May-20 15:24N 18°22' W 064°32'0 0.0
2017-May-20 14:58N 18°22' W 064°32'0 0.1
2017-May-20 14:30N 18°23' W 064°32'0 0.0
2017-May-20 13:28N 18°23' W 064°32'0 0.6
2017-May-20 13:00N 18°22' W 064°32'6 1.7
2017-May-20 09:31N 18°19' W 064°37'0 0.0
2017-May-20 07:54N 18°19' W 064°37'0 0.0
2017-May-20 07:08N 18°19' W 064°37'0 0.0
2017-May-20 06:57N 18°19' W 064°37'2 0.2
2017-May-19 17:05N 18°21' W 064°37'111.1
2017-May-19 17:00N 18°22' W 064°36'1 2.3
2017-May-19 16:23N 18°22' W 064°34'2 4.2
2017-May-19 16:00N 18°21' W 064°36'1 0.0
2017-May-18 22:17N 18°21' W 064°35'2 6.8
2017-May-18 22:00N 18°21' W 064°37'511.0
2017-May-18 21:30N 18°25' W 064°32'611.0
2017-May-18 21:00N 18°28' W 064°27'  

Dump ship's entire track history